sensor_id;sensor_type;location;lat;lon;timestamp;P1;durP1;ratioP1;P2;durP2;ratioP2
64029;SDS011;50277;52.064;4.492;2023-06-22T00:01:00;25.52;;;18.85;;
64029;SDS011;50277;52.064;4.492;2023-06-22T00:03:26;24.50;;;19.33;;
64029;SDS011;50277;52.064;4.492;2023-06-22T00:05:51;21.95;;;18.67;;
64029;SDS011;50277;52.064;4.492;2023-06-22T00:08:17;27.75;;;20.02;;
64029;SDS011;50277;52.064;4.492;2023-06-22T00:10:44;24.95;;;19.05;;
64029;SDS011;50277;52.064;4.492;2023-06-22T00:13:10;28.67;;;20.15;;
64029;SDS011;50277;52.064;4.492;2023-06-22T00:15:36;44.30;;;24.92;;
64029;SDS011;50277;52.064;4.492;2023-06-22T00:18:02;35.97;;;22.95;;
64029;SDS011;50277;52.064;4.492;2023-06-22T00:20:28;30.45;;;19.42;;
64029;SDS011;50277;52.064;4.492;2023-06-22T00:22:54;43.00;;;27.98;;
64029;SDS011;50277;52.064;4.492;2023-06-22T00:27:48;34.08;;;21.17;;
64029;SDS011;50277;52.064;4.492;2023-06-22T00:30:17;31.80;;;22.05;;
64029;SDS011;50277;52.064;4.492;2023-06-22T00:32:43;36.58;;;24.85;;
64029;SDS011;50277;52.064;4.492;2023-06-22T00:35:09;32.80;;;23.98;;
64029;SDS011;50277;52.064;4.492;2023-06-22T00:37:35;24.95;;;19.55;;
64029;SDS011;50277;52.064;4.492;2023-06-22T00:40:01;35.25;;;23.73;;
64029;SDS011;50277;52.064;4.492;2023-06-22T00:42:30;26.05;;;20.05;;
64029;SDS011;50277;52.064;4.492;2023-06-22T00:44:55;37.92;;;24.65;;
64029;SDS011;50277;52.064;4.492;2023-06-22T00:47:21;61.22;;;30.98;;
64029;SDS011;50277;52.064;4.492;2023-06-22T00:49:47;43.03;;;25.13;;
64029;SDS011;50277;52.064;4.492;2023-06-22T00:52:13;40.42;;;26.55;;
64029;SDS011;50277;52.064;4.492;2023-06-22T00:54:40;29.83;;;24.63;;
64029;SDS011;50277;52.064;4.492;2023-06-22T00:57:08;30.25;;;23.33;;
64029;SDS011;50277;52.064;4.492;2023-06-22T00:59:36;39.00;;;25.33;;
64029;SDS011;50277;52.064;4.492;2023-06-22T01:02:02;33.47;;;24.45;;
64029;SDS011;50277;52.064;4.492;2023-06-22T01:04:34;34.53;;;24.33;;
64029;SDS011;50277;52.064;4.492;2023-06-22T01:10:00;34.30;;;23.77;;
64029;SDS011;50277;52.064;4.492;2023-06-22T01:12:32;34.20;;;23.83;;
64029;SDS011;50277;52.064;4.492;2023-06-22T01:15:18;31.40;;;23.90;;
64029;SDS011;50277;52.064;4.492;2023-06-22T01:20:14;31.55;;;23.77;;
64029;SDS011;50277;52.064;4.492;2023-06-22T01:22:46;37.65;;;25.90;;
64029;SDS011;50277;52.064;4.492;2023-06-22T01:25:19;30.33;;;23.10;;
64029;SDS011;50277;52.064;4.492;2023-06-22T01:30:31;28.55;;;23.45;;
64029;SDS011;50277;52.064;4.492;2023-06-22T01:32:59;34.47;;;24.60;;
64029;SDS011;50277;52.064;4.492;2023-06-22T01:35:25;34.72;;;25.13;;
64029;SDS011;50277;52.064;4.492;2023-06-22T01:37:51;32.05;;;24.73;;
64029;SDS011;50277;52.064;4.492;2023-06-22T01:40:17;35.92;;;25.52;;
64029;SDS011;50277;52.064;4.492;2023-06-22T01:42:44;31.85;;;24.48;;
64029;SDS011;50277;52.064;4.492;2023-06-22T01:45:10;35.58;;;25.75;;
64029;SDS011;50277;52.064;4.492;2023-06-22T01:47:36;33.38;;;25.50;;
64029;SDS011;50277;52.064;4.492;2023-06-22T01:50:01;35.92;;;26.08;;
64029;SDS011;50277;52.064;4.492;2023-06-22T01:52:27;35.38;;;26.23;;
64029;SDS011;50277;52.064;4.492;2023-06-22T01:54:52;36.13;;;27.05;;
64029;SDS011;50277;52.064;4.492;2023-06-22T01:57:18;40.83;;;28.65;;
64029;SDS011;50277;52.064;4.492;2023-06-22T02:02:13;39.22;;;29.25;;
64029;SDS011;50277;52.064;4.492;2023-06-22T02:04:59;42.25;;;29.80;;
64029;SDS011;50277;52.064;4.492;2023-06-22T02:07:33;42.08;;;30.52;;
64029;SDS011;50277;52.064;4.492;2023-06-22T02:10:01;40.10;;;28.40;;
64029;SDS011;50277;52.064;4.492;2023-06-22T02:12:27;44.42;;;30.42;;
64029;SDS011;50277;52.064;4.492;2023-06-22T02:14:53;39.40;;;30.38;;
64029;SDS011;50277;52.064;4.492;2023-06-22T02:17:19;41.08;;;29.55;;
64029;SDS011;50277;52.064;4.492;2023-06-22T02:19:45;42.85;;;30.75;;
64029;SDS011;50277;52.064;4.492;2023-06-22T02:22:10;48.60;;;32.63;;
64029;SDS011;50277;52.064;4.492;2023-06-22T02:24:36;43.17;;;31.38;;
64029;SDS011;50277;52.064;4.492;2023-06-22T02:27:02;41.67;;;30.77;;
64029;SDS011;50277;52.064;4.492;2023-06-22T02:29:27;45.15;;;30.77;;
64029;SDS011;50277;52.064;4.492;2023-06-22T02:31:53;46.22;;;30.67;;
64029;SDS011;50277;52.064;4.492;2023-06-22T02:34:19;46.95;;;32.95;;
64029;SDS011;50277;52.064;4.492;2023-06-22T02:36:45;43.15;;;31.75;;
64029;SDS011;50277;52.064;4.492;2023-06-22T02:39:16;43.53;;;30.98;;
64029;SDS011;50277;52.064;4.492;2023-06-22T02:41:43;45.53;;;33.90;;
64029;SDS011;50277;52.064;4.492;2023-06-22T02:44:08;48.45;;;33.97;;
64029;SDS011;50277;52.064;4.492;2023-06-22T02:46:34;44.50;;;32.72;;
64029;SDS011;50277;52.064;4.492;2023-06-22T02:49:00;48.85;;;33.13;;
64029;SDS011;50277;52.064;4.492;2023-06-22T02:51:26;49.42;;;34.90;;
64029;SDS011;50277;52.064;4.492;2023-06-22T02:53:51;43.22;;;31.80;;
64029;SDS011;50277;52.064;4.492;2023-06-22T02:56:17;46.60;;;33.40;;
64029;SDS011;50277;52.064;4.492;2023-06-22T02:58:42;48.53;;;34.10;;
64029;SDS011;50277;52.064;4.492;2023-06-22T03:01:08;50.83;;;35.15;;
64029;SDS011;50277;52.064;4.492;2023-06-22T03:03:35;48.08;;;34.70;;
64029;SDS011;50277;52.064;4.492;2023-06-22T03:06:00;47.97;;;34.38;;
64029;SDS011;50277;52.064;4.492;2023-06-22T03:08:28;48.28;;;34.63;;
64029;SDS011;50277;52.064;4.492;2023-06-22T03:10:53;48.75;;;34.00;;
64029;SDS011;50277;52.064;4.492;2023-06-22T03:13:19;45.15;;;33.53;;
64029;SDS011;50277;52.064;4.492;2023-06-22T03:15:44;46.97;;;34.45;;
64029;SDS011;50277;52.064;4.492;2023-06-22T03:18:10;49.58;;;33.60;;
64029;SDS011;50277;52.064;4.492;2023-06-22T03:20:36;40.65;;;33.10;;
64029;SDS011;50277;52.064;4.492;2023-06-22T03:23:01;44.40;;;33.30;;
64029;SDS011;50277;52.064;4.492;2023-06-22T03:25:26;43.15;;;31.80;;
64029;SDS011;50277;52.064;4.492;2023-06-22T03:27:52;51.22;;;33.95;;
64029;SDS011;50277;52.064;4.492;2023-06-22T03:30:17;45.25;;;33.85;;
64029;SDS011;50277;52.064;4.492;2023-06-22T03:32:42;47.45;;;32.47;;
64029;SDS011;50277;52.064;4.492;2023-06-22T03:35:08;44.28;;;33.78;;
64029;SDS011;50277;52.064;4.492;2023-06-22T03:37:33;49.80;;;33.95;;
64029;SDS011;50277;52.064;4.492;2023-06-22T03:39:59;49.45;;;34.60;;
64029;SDS011;50277;52.064;4.492;2023-06-22T03:42:25;50.13;;;34.25;;
64029;SDS011;50277;52.064;4.492;2023-06-22T03:44:51;50.80;;;34.50;;
64029;SDS011;50277;52.064;4.492;2023-06-22T03:47:16;47.83;;;34.55;;
64029;SDS011;50277;52.064;4.492;2023-06-22T03:49:42;52.38;;;35.95;;
64029;SDS011;50277;52.064;4.492;2023-06-22T03:52:07;52.97;;;36.38;;
64029;SDS011;50277;52.064;4.492;2023-06-22T03:54:32;53.97;;;36.75;;
64029;SDS011;50277;52.064;4.492;2023-06-22T03:56:58;50.08;;;36.72;;
64029;SDS011;50277;52.064;4.492;2023-06-22T03:59:23;52.22;;;35.25;;
64029;SDS011;50277;52.064;4.492;2023-06-22T04:01:49;55.45;;;36.00;;
64029;SDS011;50277;52.064;4.492;2023-06-22T04:04:15;51.65;;;36.50;;
64029;SDS011;50277;52.064;4.492;2023-06-22T04:06:41;51.55;;;35.45;;
64029;SDS011;50277;52.064;4.492;2023-06-22T04:09:06;53.40;;;37.70;;
64029;SDS011;50277;52.064;4.492;2023-06-22T04:11:34;51.33;;;35.45;;
64029;SDS011;50277;52.064;4.492;2023-06-22T04:13:59;56.67;;;36.33;;
64029;SDS011;50277;52.064;4.492;2023-06-22T04:16:25;51.10;;;34.92;;
64029;SDS011;50277;52.064;4.492;2023-06-22T04:18:50;54.15;;;32.95;;
64029;SDS011;50277;52.064;4.492;2023-06-22T04:21:15;51.85;;;34.08;;
64029;SDS011;50277;52.064;4.492;2023-06-22T04:23:41;42.15;;;30.30;;
64029;SDS011;50277;52.064;4.492;2023-06-22T04:26:08;45.35;;;32.55;;
64029;SDS011;50277;52.064;4.492;2023-06-22T04:28:33;45.92;;;31.48;;
64029;SDS011;50277;52.064;4.492;2023-06-22T04:31:02;45.22;;;31.08;;
64029;SDS011;50277;52.064;4.492;2023-06-22T04:33:28;42.45;;;29.02;;
64029;SDS011;50277;52.064;4.492;2023-06-22T04:35:56;36.15;;;28.27;;
64029;SDS011;50277;52.064;4.492;2023-06-22T04:38:22;37.00;;;27.98;;
64029;SDS011;50277;52.064;4.492;2023-06-22T04:40:48;31.50;;;25.25;;
64029;SDS011;50277;52.064;4.492;2023-06-22T04:43:13;38.25;;;27.08;;
64029;SDS011;50277;52.064;4.492;2023-06-22T04:45:39;37.20;;;27.55;;
64029;SDS011;50277;52.064;4.492;2023-06-22T04:48:05;33.03;;;26.55;;
64029;SDS011;50277;52.064;4.492;2023-06-22T04:50:30;37.97;;;27.65;;
64029;SDS011;50277;52.064;4.492;2023-06-22T04:52:55;34.05;;;25.17;;
64029;SDS011;50277;52.064;4.492;2023-06-22T04:55:21;31.88;;;26.00;;
64029;SDS011;50277;52.064;4.492;2023-06-22T04:57:47;30.85;;;23.60;;
64029;SDS011;50277;52.064;4.492;2023-06-22T05:00:16;35.95;;;25.30;;
64029;SDS011;50277;52.064;4.492;2023-06-22T05:02:45;28.77;;;23.58;;
64029;SDS011;50277;52.064;4.492;2023-06-22T05:05:12;28.98;;;21.88;;
64029;SDS011;50277;52.064;4.492;2023-06-22T05:07:44;28.75;;;21.55;;
64029;SDS011;50277;52.064;4.492;2023-06-22T05:10:17;30.23;;;22.90;;
64029;SDS011;50277;52.064;4.492;2023-06-22T05:12:43;28.88;;;23.90;;
64029;SDS011;50277;52.064;4.492;2023-06-22T05:15:08;32.92;;;22.17;;
64029;SDS011;50277;52.064;4.492;2023-06-22T05:17:35;28.58;;;21.13;;
64029;SDS011;50277;52.064;4.492;2023-06-22T05:20:01;25.20;;;20.90;;
64029;SDS011;50277;52.064;4.492;2023-06-22T05:22:26;26.23;;;20.30;;
64029;SDS011;50277;52.064;4.492;2023-06-22T05:24:52;25.80;;;19.45;;
64029;SDS011;50277;52.064;4.492;2023-06-22T05:27:17;22.58;;;16.98;;
64029;SDS011;50277;52.064;4.492;2023-06-22T05:29:43;23.92;;;18.17;;
64029;SDS011;50277;52.064;4.492;2023-06-22T05:32:08;19.77;;;16.13;;
64029;SDS011;50277;52.064;4.492;2023-06-22T05:34:33;22.60;;;16.05;;
64029;SDS011;50277;52.064;4.492;2023-06-22T05:36:59;19.45;;;16.35;;
64029;SDS011;50277;52.064;4.492;2023-06-22T05:39:24;21.08;;;17.67;;
64029;SDS011;50277;52.064;4.492;2023-06-22T05:41:50;20.15;;;15.68;;
64029;SDS011;50277;52.064;4.492;2023-06-22T05:44:15;22.73;;;16.58;;
64029;SDS011;50277;52.064;4.492;2023-06-22T05:46:42;18.55;;;15.15;;
64029;SDS011;50277;52.064;4.492;2023-06-22T05:51:34;20.77;;;17.23;;
64029;SDS011;50277;52.064;4.492;2023-06-22T05:54:00;24.33;;;18.52;;
64029;SDS011;50277;52.064;4.492;2023-06-22T05:56:25;21.55;;;17.50;;
64029;SDS011;50277;52.064;4.492;2023-06-22T05:58:50;23.80;;;18.85;;
64029;SDS011;50277;52.064;4.492;2023-06-22T06:01:16;23.67;;;18.60;;
64029;SDS011;50277;52.064;4.492;2023-06-22T06:03:41;23.70;;;17.40;;
64029;SDS011;50277;52.064;4.492;2023-06-22T06:06:07;19.52;;;16.25;;
64029;SDS011;50277;52.064;4.492;2023-06-22T06:08:32;23.13;;;18.65;;
64029;SDS011;50277;52.064;4.492;2023-06-22T06:10:58;18.90;;;16.05;;
64029;SDS011;50277;52.064;4.492;2023-06-22T06:13:23;17.63;;;13.88;;
64029;SDS011;50277;52.064;4.492;2023-06-22T06:15:49;18.55;;;15.18;;
64029;SDS011;50277;52.064;4.492;2023-06-22T06:18:16;18.38;;;15.07;;
64029;SDS011;50277;52.064;4.492;2023-06-22T06:20:42;18.63;;;15.30;;
64029;SDS011;50277;52.064;4.492;2023-06-22T06:23:07;25.30;;;13.80;;
64029;SDS011;50277;52.064;4.492;2023-06-22T06:25:33;18.67;;;12.50;;
64029;SDS011;50277;52.064;4.492;2023-06-22T06:27:58;13.38;;;11.70;;
64029;SDS011;50277;52.064;4.492;2023-06-22T06:30:23;20.55;;;13.73;;
64029;SDS011;50277;52.064;4.492;2023-06-22T06:32:49;13.40;;;11.85;;
64029;SDS011;50277;52.064;4.492;2023-06-22T06:35:15;13.25;;;11.88;;
64029;SDS011;50277;52.064;4.492;2023-06-22T06:37:44;14.57;;;11.40;;
64029;SDS011;50277;52.064;4.492;2023-06-22T06:40:11;15.73;;;11.68;;
64029;SDS011;50277;52.064;4.492;2023-06-22T06:42:37;14.25;;;11.63;;
64029;SDS011;50277;52.064;4.492;2023-06-22T06:47:31;11.68;;;9.82;;
64029;SDS011;50277;52.064;4.492;2023-06-22T06:49:57;16.33;;;11.77;;
64029;SDS011;50277;52.064;4.492;2023-06-22T06:52:22;14.65;;;11.40;;
64029;SDS011;50277;52.064;4.492;2023-06-22T06:54:48;15.82;;;12.98;;
64029;SDS011;50277;52.064;4.492;2023-06-22T06:57:13;12.80;;;11.23;;
64029;SDS011;50277;52.064;4.492;2023-06-22T06:59:40;14.48;;;11.98;;
64029;SDS011;50277;52.064;4.492;2023-06-22T07:02:05;9.65;;;8.52;;
64029;SDS011;50277;52.064;4.492;2023-06-22T07:04:30;12.35;;;10.07;;
64029;SDS011;50277;52.064;4.492;2023-06-22T07:06:56;11.35;;;9.70;;
64029;SDS011;50277;52.064;4.492;2023-06-22T07:09:21;11.10;;;9.65;;
64029;SDS011;50277;52.064;4.492;2023-06-22T07:11:46;10.60;;;8.43;;
64029;SDS011;50277;52.064;4.492;2023-06-22T07:14:12;10.00;;;7.60;;
64029;SDS011;50277;52.064;4.492;2023-06-22T07:16:37;10.82;;;8.65;;
64029;SDS011;50277;52.064;4.492;2023-06-22T07:19:02;13.38;;;7.93;;
64029;SDS011;50277;52.064;4.492;2023-06-22T07:21:28;6.90;;;5.95;;
64029;SDS011;50277;52.064;4.492;2023-06-22T07:23:53;10.38;;;6.75;;
64029;SDS011;50277;52.064;4.492;2023-06-22T07:26:19;9.43;;;8.00;;
64029;SDS011;50277;52.064;4.492;2023-06-22T07:28:44;7.28;;;6.57;;
64029;SDS011;50277;52.064;4.492;2023-06-22T07:31:10;6.25;;;5.65;;
64029;SDS011;50277;52.064;4.492;2023-06-22T07:33:35;6.97;;;6.05;;
64029;SDS011;50277;52.064;4.492;2023-06-22T07:36:00;6.22;;;5.63;;
64029;SDS011;50277;52.064;4.492;2023-06-22T07:38:26;7.50;;;6.45;;
64029;SDS011;50277;52.064;4.492;2023-06-22T07:40:51;7.82;;;5.55;;
64029;SDS011;50277;52.064;4.492;2023-06-22T07:43:18;11.45;;;7.15;;
64029;SDS011;50277;52.064;4.492;2023-06-22T07:45:47;7.88;;;6.57;;
64029;SDS011;50277;52.064;4.492;2023-06-22T07:48:22;7.18;;;6.47;;
64029;SDS011;50277;52.064;4.492;2023-06-22T07:50:48;10.25;;;8.02;;
64029;SDS011;50277;52.064;4.492;2023-06-22T07:53:13;6.85;;;6.22;;
64029;SDS011;50277;52.064;4.492;2023-06-22T07:55:39;6.55;;;5.95;;
64029;SDS011;50277;52.064;4.492;2023-06-22T07:58:04;5.55;;;4.47;;
64029;SDS011;50277;52.064;4.492;2023-06-22T08:00:29;7.43;;;6.60;;
64029;SDS011;50277;52.064;4.492;2023-06-22T08:02:55;8.02;;;7.20;;
64029;SDS011;50277;52.064;4.492;2023-06-22T08:05:21;6.65;;;5.50;;
64029;SDS011;50277;52.064;4.492;2023-06-22T08:07:46;14.70;;;8.18;;
64029;SDS011;50277;52.064;4.492;2023-06-22T08:10:11;9.50;;;7.85;;
64029;SDS011;50277;52.064;4.492;2023-06-22T08:12:37;8.48;;;7.07;;
64029;SDS011;50277;52.064;4.492;2023-06-22T08:15:03;8.70;;;6.63;;
64029;SDS011;50277;52.064;4.492;2023-06-22T08:17:29;9.27;;;6.70;;
64029;SDS011;50277;52.064;4.492;2023-06-22T08:19:56;11.48;;;6.25;;
64029;SDS011;50277;52.064;4.492;2023-06-22T08:22:21;7.43;;;5.97;;
64029;SDS011;50277;52.064;4.492;2023-06-22T08:24:46;8.63;;;6.15;;
64029;SDS011;50277;52.064;4.492;2023-06-22T08:27:12;5.28;;;4.43;;
64029;SDS011;50277;52.064;4.492;2023-06-22T08:29:38;7.70;;;6.38;;
64029;SDS011;50277;52.064;4.492;2023-06-22T08:32:04;8.48;;;6.10;;
64029;SDS011;50277;52.064;4.492;2023-06-22T08:34:30;5.30;;;4.57;;
64029;SDS011;50277;52.064;4.492;2023-06-22T08:36:55;6.05;;;4.78;;
64029;SDS011;50277;52.064;4.492;2023-06-22T08:39:20;4.07;;;3.60;;
64029;SDS011;50277;52.064;4.492;2023-06-22T08:41:47;3.58;;;3.28;;
64029;SDS011;50277;52.064;4.492;2023-06-22T08:44:13;3.75;;;3.00;;
64029;SDS011;50277;52.064;4.492;2023-06-22T08:46:38;3.47;;;3.17;;
64029;SDS011;50277;52.064;4.492;2023-06-22T08:49:05;4.85;;;3.28;;
64029;SDS011;50277;52.064;4.492;2023-06-22T08:51:31;6.03;;;4.90;;
64029;SDS011;50277;52.064;4.492;2023-06-22T08:53:56;4.25;;;3.65;;
64029;SDS011;50277;52.064;4.492;2023-06-22T08:56:22;5.28;;;3.95;;
64029;SDS011;50277;52.064;4.492;2023-06-22T08:58:47;5.75;;;4.78;;
64029;SDS011;50277;52.064;4.492;2023-06-22T09:01:13;9.00;;;7.68;;
64029;SDS011;50277;52.064;4.492;2023-06-22T09:03:40;8.07;;;7.30;;
64029;SDS011;50277;52.064;4.492;2023-06-22T09:06:05;8.57;;;7.35;;
64029;SDS011;50277;52.064;4.492;2023-06-22T09:08:31;9.52;;;8.32;;
64029;SDS011;50277;52.064;4.492;2023-06-22T09:10:57;9.68;;;8.68;;
64029;SDS011;50277;52.064;4.492;2023-06-22T09:13:22;9.38;;;7.35;;
64029;SDS011;50277;52.064;4.492;2023-06-22T09:15:47;6.10;;;5.38;;
64029;SDS011;50277;52.064;4.492;2023-06-22T09:18:13;7.78;;;5.53;;
64029;SDS011;50277;52.064;4.492;2023-06-22T09:20:39;10.75;;;8.90;;
64029;SDS011;50277;52.064;4.492;2023-06-22T09:23:04;9.57;;;7.65;;
64029;SDS011;50277;52.064;4.492;2023-06-22T09:25:29;10.02;;;7.75;;
64029;SDS011;50277;52.064;4.492;2023-06-22T09:27:55;11.18;;;8.10;;
64029;SDS011;50277;52.064;4.492;2023-06-22T09:30:21;6.65;;;6.05;;
64029;SDS011;50277;52.064;4.492;2023-06-22T09:32:46;6.18;;;5.68;;
64029;SDS011;50277;52.064;4.492;2023-06-22T09:35:12;11.63;;;6.30;;
64029;SDS011;50277;52.064;4.492;2023-06-22T09:37:38;8.88;;;7.70;;
64029;SDS011;50277;52.064;4.492;2023-06-22T09:40:04;6.55;;;5.88;;
64029;SDS011;50277;52.064;4.492;2023-06-22T09:42:37;9.07;;;5.70;;
64029;SDS011;50277;52.064;4.492;2023-06-22T09:45:03;8.95;;;6.10;;
64029;SDS011;50277;52.064;4.492;2023-06-22T09:47:29;11.70;;;6.82;;
64029;SDS011;50277;52.064;4.492;2023-06-22T09:49:54;8.23;;;6.60;;
64029;SDS011;50277;52.064;4.492;2023-06-22T09:52:20;9.27;;;7.20;;
64029;SDS011;50277;52.064;4.492;2023-06-22T09:54:46;7.75;;;6.07;;
64029;SDS011;50277;52.064;4.492;2023-06-22T09:57:11;10.63;;;4.95;;
64029;SDS011;50277;52.064;4.492;2023-06-22T09:59:37;4.90;;;4.40;;
64029;SDS011;50277;52.064;4.492;2023-06-22T10:02:03;4.53;;;3.45;;
64029;SDS011;50277;52.064;4.492;2023-06-22T10:04:28;8.57;;;5.47;;
64029;SDS011;50277;52.064;4.492;2023-06-22T10:06:53;6.88;;;4.60;;
64029;SDS011;50277;52.064;4.492;2023-06-22T10:09:19;7.90;;;6.55;;
64029;SDS011;50277;52.064;4.492;2023-06-22T10:11:44;7.38;;;6.18;;
64029;SDS011;50277;52.064;4.492;2023-06-22T10:14:09;7.85;;;5.45;;
64029;SDS011;50277;52.064;4.492;2023-06-22T10:16:36;8.45;;;7.55;;
64029;SDS011;50277;52.064;4.492;2023-06-22T10:19:01;7.22;;;5.35;;
64029;SDS011;50277;52.064;4.492;2023-06-22T10:21:27;6.50;;;5.13;;
64029;SDS011;50277;52.064;4.492;2023-06-22T10:23:53;8.50;;;7.10;;
64029;SDS011;50277;52.064;4.492;2023-06-22T10:26:19;12.48;;;5.22;;
64029;SDS011;50277;52.064;4.492;2023-06-22T10:28:44;6.65;;;5.43;;
64029;SDS011;50277;52.064;4.492;2023-06-22T10:31:09;6.10;;;5.50;;
64029;SDS011;50277;52.064;4.492;2023-06-22T10:33:35;6.30;;;5.68;;
64029;SDS011;50277;52.064;4.492;2023-06-22T10:36:00;8.27;;;7.35;;
64029;SDS011;50277;52.064;4.492;2023-06-22T10:38:25;6.70;;;6.10;;
64029;SDS011;50277;52.064;4.492;2023-06-22T10:40:51;8.93;;;7.57;;
64029;SDS011;50277;52.064;4.492;2023-06-22T10:43:16;8.07;;;6.05;;
64029;SDS011;50277;52.064;4.492;2023-06-22T10:45:41;9.05;;;8.20;;
64029;SDS011;50277;52.064;4.492;2023-06-22T10:48:07;9.10;;;8.15;;
64029;SDS011;50277;52.064;4.492;2023-06-22T10:50:32;9.23;;;7.10;;
64029;SDS011;50277;52.064;4.492;2023-06-22T10:52:57;10.43;;;9.10;;
64029;SDS011;50277;52.064;4.492;2023-06-22T10:55:23;10.52;;;8.45;;
64029;SDS011;50277;52.064;4.492;2023-06-22T10:57:48;11.13;;;9.48;;
64029;SDS011;50277;52.064;4.492;2023-06-22T11:00:14;7.93;;;7.13;;
64029;SDS011;50277;52.064;4.492;2023-06-22T11:02:40;7.40;;;6.53;;
64029;SDS011;50277;52.064;4.492;2023-06-22T11:05:06;14.13;;;10.23;;
64029;SDS011;50277;52.064;4.492;2023-06-22T11:07:31;14.13;;;11.15;;
64029;SDS011;50277;52.064;4.492;2023-06-22T11:09:57;13.80;;;10.32;;
64029;SDS011;50277;52.064;4.492;2023-06-22T11:12:23;12.20;;;10.90;;
64029;SDS011;50277;52.064;4.492;2023-06-22T11:14:48;14.45;;;11.68;;
64029;SDS011;50277;52.064;4.492;2023-06-22T11:17:16;9.07;;;8.15;;
64029;SDS011;50277;52.064;4.492;2023-06-22T11:19:41;14.23;;;11.23;;
64029;SDS011;50277;52.064;4.492;2023-06-22T11:22:07;10.05;;;8.85;;
64029;SDS011;50277;52.064;4.492;2023-06-22T11:24:32;10.38;;;7.70;;
64029;SDS011;50277;52.064;4.492;2023-06-22T11:26:58;12.52;;;11.30;;
64029;SDS011;50277;52.064;4.492;2023-06-22T11:29:23;16.90;;;13.20;;
64029;SDS011;50277;52.064;4.492;2023-06-22T11:31:48;14.13;;;12.13;;
64029;SDS011;50277;52.064;4.492;2023-06-22T11:34:14;12.57;;;11.23;;
64029;SDS011;50277;52.064;4.492;2023-06-22T11:36:39;13.00;;;11.27;;
64029;SDS011;50277;52.064;4.492;2023-06-22T11:39:05;17.15;;;11.93;;
64029;SDS011;50277;52.064;4.492;2023-06-22T11:41:30;11.10;;;8.70;;
64029;SDS011;50277;52.064;4.492;2023-06-22T11:43:56;13.20;;;10.57;;
64029;SDS011;50277;52.064;4.492;2023-06-22T11:46:21;16.08;;;11.43;;
64029;SDS011;50277;52.064;4.492;2023-06-22T11:48:46;18.23;;;13.20;;
64029;SDS011;50277;52.064;4.492;2023-06-22T11:51:12;15.73;;;13.73;;
64029;SDS011;50277;52.064;4.492;2023-06-22T11:53:37;13.52;;;11.93;;
64029;SDS011;50277;52.064;4.492;2023-06-22T11:56:02;17.80;;;13.85;;
64029;SDS011;50277;52.064;4.492;2023-06-22T11:58:28;15.70;;;13.07;;
64029;SDS011;50277;52.064;4.492;2023-06-22T12:00:53;21.67;;;12.95;;
64029;SDS011;50277;52.064;4.492;2023-06-22T12:03:19;21.17;;;15.40;;
64029;SDS011;50277;52.064;4.492;2023-06-22T12:05:46;15.45;;;12.07;;
64029;SDS011;50277;52.064;4.492;2023-06-22T12:08:11;15.90;;;12.30;;
64029;SDS011;50277;52.064;4.492;2023-06-22T12:10:38;12.25;;;11.00;;
64029;SDS011;50277;52.064;4.492;2023-06-22T12:13:03;16.33;;;12.88;;
64029;SDS011;50277;52.064;4.492;2023-06-22T12:15:29;12.70;;;10.75;;
64029;SDS011;50277;52.064;4.492;2023-06-22T12:17:55;15.13;;;11.98;;
64029;SDS011;50277;52.064;4.492;2023-06-22T12:20:20;17.33;;;12.35;;
64029;SDS011;50277;52.064;4.492;2023-06-22T12:22:46;13.80;;;10.82;;
64029;SDS011;50277;52.064;4.492;2023-06-22T12:25:12;13.50;;;11.35;;
64029;SDS011;50277;52.064;4.492;2023-06-22T12:27:37;12.13;;;10.00;;
64029;SDS011;50277;52.064;4.492;2023-06-22T12:30:03;10.10;;;8.40;;
64029;SDS011;50277;52.064;4.492;2023-06-22T12:32:29;16.30;;;12.77;;
64029;SDS011;50277;52.064;4.492;2023-06-22T12:34:55;17.92;;;14.23;;
64029;SDS011;50277;52.064;4.492;2023-06-22T12:37:20;17.73;;;13.60;;
64029;SDS011;50277;52.064;4.492;2023-06-22T12:39:45;13.98;;;11.50;;
64029;SDS011;50277;52.064;4.492;2023-06-22T12:42:11;19.75;;;14.75;;
64029;SDS011;50277;52.064;4.492;2023-06-22T12:44:40;13.65;;;12.27;;
64029;SDS011;50277;52.064;4.492;2023-06-22T12:47:06;17.38;;;14.43;;
64029;SDS011;50277;52.064;4.492;2023-06-22T12:49:33;17.73;;;15.60;;
64029;SDS011;50277;52.064;4.492;2023-06-22T12:51:58;15.82;;;14.02;;
64029;SDS011;50277;52.064;4.492;2023-06-22T12:54:23;14.90;;;13.18;;
64029;SDS011;50277;52.064;4.492;2023-06-22T12:56:52;18.52;;;13.85;;
64029;SDS011;50277;52.064;4.492;2023-06-22T12:59:17;18.00;;;15.18;;
64029;SDS011;50277;52.064;4.492;2023-06-22T13:01:43;18.88;;;16.42;;
64029;SDS011;50277;52.064;4.492;2023-06-22T13:04:11;15.32;;;11.32;;
64029;SDS011;50277;52.064;4.492;2023-06-22T13:06:39;17.48;;;13.73;;
64029;SDS011;50277;52.064;4.492;2023-06-22T13:09:05;16.52;;;14.75;;
64029;SDS011;50277;52.064;4.492;2023-06-22T13:11:31;15.55;;;13.18;;
64029;SDS011;50277;52.064;4.492;2023-06-22T13:13:56;13.02;;;11.57;;
64029;SDS011;50277;52.064;4.492;2023-06-22T13:16:21;17.02;;;14.57;;
64029;SDS011;50277;52.064;4.492;2023-06-22T13:18:47;18.80;;;13.63;;
64029;SDS011;50277;52.064;4.492;2023-06-22T13:21:12;17.20;;;13.98;;
64029;SDS011;50277;52.064;4.492;2023-06-22T13:23:38;15.65;;;9.25;;
64029;SDS011;50277;52.064;4.492;2023-06-22T13:26:03;12.32;;;9.65;;
64029;SDS011;50277;52.064;4.492;2023-06-22T13:28:29;13.38;;;12.07;;
64029;SDS011;50277;52.064;4.492;2023-06-22T13:30:55;18.95;;;13.18;;
64029;SDS011;50277;52.064;4.492;2023-06-22T13:33:20;16.95;;;12.63;;
64029;SDS011;50277;52.064;4.492;2023-06-22T13:35:45;16.10;;;12.95;;
64029;SDS011;50277;52.064;4.492;2023-06-22T13:38:11;16.63;;;13.10;;
64029;SDS011;50277;52.064;4.492;2023-06-22T13:40:36;17.35;;;13.73;;
64029;SDS011;50277;52.064;4.492;2023-06-22T13:43:05;17.23;;;13.45;;
64029;SDS011;50277;52.064;4.492;2023-06-22T13:45:31;16.20;;;12.23;;
64029;SDS011;50277;52.064;4.492;2023-06-22T13:47:56;11.60;;;9.68;;
64029;SDS011;50277;52.064;4.492;2023-06-22T13:50:22;14.18;;;12.68;;
64029;SDS011;50277;52.064;4.492;2023-06-22T13:52:47;16.08;;;12.27;;
64029;SDS011;50277;52.064;4.492;2023-06-22T13:55:13;13.88;;;11.70;;
64029;SDS011;50277;52.064;4.492;2023-06-22T13:57:39;17.15;;;12.10;;
64029;SDS011;50277;52.064;4.492;2023-06-22T14:00:06;19.70;;;11.95;;
64029;SDS011;50277;52.064;4.492;2023-06-22T14:02:32;15.30;;;11.57;;
64029;SDS011;50277;52.064;4.492;2023-06-22T14:04:58;16.92;;;10.95;;
64029;SDS011;50277;52.064;4.492;2023-06-22T14:07:23;12.77;;;11.25;;
64029;SDS011;50277;52.064;4.492;2023-06-22T14:09:49;12.70;;;11.15;;
64029;SDS011;50277;52.064;4.492;2023-06-22T14:12:14;11.43;;;9.38;;
64029;SDS011;50277;52.064;4.492;2023-06-22T14:14:40;12.82;;;10.82;;
64029;SDS011;50277;52.064;4.492;2023-06-22T14:17:06;15.82;;;12.23;;
64029;SDS011;50277;52.064;4.492;2023-06-22T14:19:31;15.38;;;12.52;;
64029;SDS011;50277;52.064;4.492;2023-06-22T14:21:57;11.82;;;10.52;;
64029;SDS011;50277;52.064;4.492;2023-06-22T14:24:22;16.90;;;11.88;;
64029;SDS011;50277;52.064;4.492;2023-06-22T14:26:48;12.98;;;11.10;;
64029;SDS011;50277;52.064;4.492;2023-06-22T14:29:14;12.52;;;11.10;;
64029;SDS011;50277;52.064;4.492;2023-06-22T14:31:39;13.57;;;9.52;;
64029;SDS011;50277;52.064;4.492;2023-06-22T14:34:05;10.57;;;9.48;;
64029;SDS011;50277;52.064;4.492;2023-06-22T14:36:31;11.85;;;9.85;;
64029;SDS011;50277;52.064;4.492;2023-06-22T14:38:56;12.07;;;10.07;;